createdAt,value
2019-01-23T00:00:39.525Z,0
2019-01-23T00:03:45.585Z,0
2019-01-23T00:06:51.549Z,0
2019-01-23T00:09:57.470Z,0
2019-01-23T00:13:04.791Z,0
2019-01-23T00:16:10.755Z,0
2019-01-23T00:19:16.722Z,0
2019-01-23T00:22:22.598Z,0
2019-01-23T00:25:28.532Z,0
2019-01-23T00:28:34.584Z,0
2019-01-23T00:31:46.493Z,0
2019-01-23T00:34:52.454Z,0
2019-01-23T00:37:58.519Z,0
2019-01-23T00:41:04.406Z,0
2019-01-23T00:44:10.333Z,0
2019-01-23T00:47:16.294Z,0
2019-01-23T00:50:22.232Z,0
2019-01-23T00:53:28.211Z,0
2019-01-23T00:56:34.088Z,0
2019-01-23T00:59:40.031Z,0
2019-01-23T01:02:46.003Z,0
2019-01-23T01:05:51.857Z,0
2019-01-23T01:08:57.806Z,0
2019-01-23T01:12:03.775Z,0
2019-01-23T01:15:16.178Z,0
2019-01-23T01:18:22.183Z,0
2019-01-23T01:21:28.092Z,0
2019-01-23T01:24:34.051Z,0
2019-01-23T01:27:40.009Z,0
2019-01-23T01:30:45.878Z,0
2019-01-23T01:33:51.830Z,0
2019-01-23T01:36:57.788Z,0
2019-01-23T01:40:03.832Z,0
2019-01-23T01:43:09.810Z,0
2019-01-23T01:46:15.682Z,0
2019-01-23T01:49:21.634Z,0
2019-01-23T01:52:27.610Z,0
2019-01-23T01:55:33.489Z,0
2019-01-23T01:58:39.503Z,0
2019-01-23T02:01:45.465Z,0
2019-01-23T02:04:51.519Z,0
2019-01-23T02:07:57.400Z,0
2019-01-23T02:11:03.275Z,0
2019-01-23T02:14:09.295Z,0
2019-01-23T02:17:15.171Z,0
2019-01-23T02:20:21.112Z,0
2019-01-23T02:23:26.995Z,0
2019-01-23T02:26:32.928Z,0
2019-01-23T02:29:38.806Z,0
2019-01-23T02:32:44.948Z,0
2019-01-23T02:35:50.959Z,0
2019-01-23T02:38:56.836Z,0
2019-01-23T02:42:02.912Z,0
2019-01-23T02:45:08.781Z,0
2019-01-23T02:48:14.745Z,0
2019-01-23T02:51:20.702Z,0
2019-01-23T02:54:26.574Z,0
2019-01-23T02:57:32.520Z,0
2019-01-23T03:00:38.579Z,0
2019-01-23T03:03:44.550Z,0
2019-01-23T03:06:50.509Z,0
2019-01-23T03:09:56.497Z,0
2019-01-23T03:13:02.528Z,0
2019-01-23T03:16:08.499Z,0
2019-01-23T03:19:14.459Z,0
2019-01-23T03:22:26.163Z,0
2019-01-23T03:25:32.190Z,0
2019-01-23T03:28:38.158Z,0
2019-01-23T03:31:44.225Z,0
2019-01-23T03:34:50.182Z,0
2019-01-23T03:37:56.137Z,0
2019-01-23T03:41:02.000Z,0
2019-01-23T03:44:07.958Z,0
2019-01-23T03:47:13.837Z,0
2019-01-23T03:50:19.874Z,92.9
2019-01-23T03:53:25.832Z,203
2019-01-23T03:56:31.791Z,241.9
2019-01-23T03:59:37.722Z,250.6
2019-01-23T04:02:43.708Z,254.9
2019-01-23T04:05:52.738Z,257.8
2019-01-23T04:08:58.604Z,256.3
2019-01-23T04:12:04.554Z,256.3
2019-01-23T04:15:10.421Z,254.9
2019-01-23T04:18:16.363Z,256.3
2019-01-23T04:21:22.583Z,256.3
2019-01-23T04:24:28.593Z,256.3
2019-01-23T04:27:34.529Z,256.3
2019-01-23T04:30:40.440Z,254.9
2019-01-23T04:33:46.481Z,254.9
2019-01-23T04:36:52.683Z,254.9
2019-01-23T04:39:59.309Z,254.9
2019-01-23T04:43:05.681Z,253.4
2019-01-23T04:46:12.253Z,257.8
2019-01-23T04:49:18.216Z,256.3
2019-01-23T04:52:24.375Z,256.3
2019-01-23T04:55:30.343Z,256.3
2019-01-23T04:58:36.298Z,256.3
2019-01-23T05:01:42.282Z,256.3
2019-01-23T05:04:48.321Z,256.3
2019-01-23T05:07:54.635Z,256.3
2019-01-23T05:11:00.521Z,256.3
2019-01-23T05:14:09.632Z,254.9
2019-01-23T05:17:15.502Z,254.9
2019-01-23T05:20:21.576Z,254.9
2019-01-23T05:23:27.659Z,254.9
2019-01-23T05:26:35.468Z,254.9
2019-01-23T05:29:41.537Z,254.9
2019-01-23T05:32:47.667Z,254.9
2019-01-23T05:35:53.662Z,254.9
2019-01-23T05:38:59.604Z,254.9
2019-01-23T05:42:05.475Z,254.9
2019-01-23T05:45:13.041Z,188.6
2019-01-23T05:48:19.119Z,254.9
2019-01-23T05:51:25.035Z,253.4
2019-01-23T05:54:33.831Z,253.4
2019-01-23T05:57:39.712Z,247.7
2019-01-23T06:00:45.716Z,1146.2
2019-01-23T06:03:51.797Z,254.9
2019-01-23T06:06:57.837Z,241.9
2019-01-23T06:10:06.628Z,253.4
2019-01-23T06:13:12.522Z,246.2
2019-01-23T06:16:18.577Z,253.4
2019-01-23T06:19:24.555Z,253.4
2019-01-23T06:22:30.507Z,254.9
2019-01-23T06:25:36.463Z,254.9
2019-01-23T06:28:42.520Z,254.9
2019-01-23T06:31:48.391Z,230.4
2019-01-23T06:34:54.390Z,252
2019-01-23T06:38:00.295Z,252
2019-01-23T06:41:09.120Z,250.6
2019-01-23T06:44:15.058Z,252
2019-01-23T06:47:21.042Z,253.4
2019-01-23T06:50:26.947Z,256.3
2019-01-23T06:53:32.911Z,254.9
2019-01-23T06:56:39.049Z,253.4
2019-01-23T06:59:44.911Z,250.6
2019-01-23T07:02:51.341Z,253.4
2019-01-23T07:05:58.413Z,259.2
2019-01-23T07:09:04.510Z,246.2
2019-01-23T07:12:10.454Z,250.6
2019-01-23T07:15:16.424Z,250.6
2019-01-23T07:18:22.371Z,257.8
2019-01-23T07:21:28.468Z,263.5
2019-01-23T07:24:34.496Z,262.1
2019-01-23T07:27:40.566Z,263.5
2019-01-23T07:30:46.568Z,237.6
2019-01-23T07:33:52.629Z,263.5
2019-01-23T07:36:58.506Z,263.5
2019-01-23T07:40:06.959Z,263.5
2019-01-23T07:43:12.933Z,263.5
2019-01-23T07:46:19.101Z,263.5
2019-01-23T07:49:27.949Z,265
2019-01-23T07:52:33.969Z,265
2019-01-23T07:55:42.453Z,265
2019-01-23T07:58:48.681Z,265
2019-01-23T08:01:54.686Z,263.5
2019-01-23T08:05:00.797Z,266.4
2019-01-23T08:08:07.613Z,213.1
2019-01-23T08:11:13.670Z,260.6
2019-01-23T08:14:19.526Z,229
2019-01-23T08:17:32.558Z,266.4
2019-01-23T08:20:39.139Z,262.1
2019-01-23T08:23:46.158Z,265
2019-01-23T08:26:52.518Z,262.1
2019-01-23T08:30:01.084Z,277.9
2019-01-23T08:33:07.010Z,280.8
2019-01-23T08:36:13.177Z,282.2
2019-01-23T08:39:19.128Z,283.7
2019-01-23T08:42:25.199Z,280.8
2019-01-23T08:45:31.108Z,282.2
2019-01-23T08:48:37.195Z,279.4
2019-01-23T08:51:43.279Z,277.9
2019-01-23T08:54:49.276Z,273.6
2019-01-23T08:57:55.398Z,276.5
2019-01-23T09:01:01.426Z,276.5
2019-01-23T09:04:07.314Z,265
2019-01-23T09:07:13.273Z,277.9
2019-01-23T09:10:21.933Z,276.5
2019-01-23T09:13:27.835Z,277.9
2019-01-23T09:16:34.896Z,277.9
2019-01-23T09:19:40.798Z,277.9
2019-01-23T09:22:46.690Z,277.9
2019-01-23T09:25:56.200Z,279.4
2019-01-23T09:29:02.380Z,279.4
2019-01-23T09:32:08.426Z,283.7
2019-01-23T09:35:14.301Z,283.7
2019-01-23T09:38:20.432Z,280.8
2019-01-23T09:41:27.432Z,286.6
2019-01-23T09:44:33.709Z,288
2019-01-23T09:47:39.671Z,286.6
2019-01-23T09:50:45.704Z,285.1
2019-01-23T09:53:51.691Z,285.1
2019-01-23T09:56:59.084Z,282.2
2019-01-23T10:00:06.246Z,283.7
2019-01-23T10:03:12.182Z,282.2
2019-01-23T10:06:18.077Z,282.2
2019-01-23T10:09:24.033Z,267.8
2019-01-23T10:12:30.117Z,275
2019-01-23T10:15:36.076Z,272.2
2019-01-23T10:18:41.932Z,270.7
2019-01-23T10:21:47.969Z,272.2
2019-01-23T10:24:54.268Z,272.2
2019-01-23T10:28:00.146Z,272.2
2019-01-23T10:31:09.946Z,275
2019-01-23T10:34:15.914Z,279.4
2019-01-23T10:37:22.712Z,275
2019-01-23T10:40:28.649Z,275
2019-01-23T10:43:34.601Z,272.2
2019-01-23T10:46:43.631Z,272.2
2019-01-23T10:49:49.593Z,272.2
2019-01-23T10:52:58.605Z,275
2019-01-23T10:56:04.509Z,277.9
2019-01-23T10:59:10.553Z,272.2
2019-01-23T11:02:16.481Z,270.7
2019-01-23T11:05:25.245Z,269.3
2019-01-23T11:08:31.116Z,269.3
2019-01-23T11:11:37.079Z,267.8
2019-01-23T11:14:43.084Z,267.8
2019-01-23T11:17:48.959Z,269.3
2019-01-23T11:20:55.028Z,272.2
2019-01-23T11:24:00.988Z,273.6
2019-01-23T11:27:07.042Z,276.5
2019-01-23T11:30:12.914Z,276.5
2019-01-23T11:33:18.949Z,275
2019-01-23T11:36:25.859Z,249.1
2019-01-23T11:39:31.710Z,270.7
2019-01-23T11:42:37.830Z,269.3
2019-01-23T11:45:46.084Z,266.4
2019-01-23T11:48:54.194Z,263.5
2019-01-23T11:52:00.155Z,263.5
2019-01-23T11:55:07.228Z,262.1
2019-01-23T11:58:14.243Z,273.6
2019-01-23T12:01:20.232Z,273.6
2019-01-23T12:04:33.735Z,270.7
2019-01-23T12:07:39.960Z,272.2
2019-01-23T12:10:46.070Z,272.2
2019-01-23T12:13:52.051Z,270.7
2019-01-23T12:16:59.798Z,270.7
2019-01-23T12:20:05.832Z,272.2
2019-01-23T12:23:11.932Z,257.8
2019-01-23T12:26:17.891Z,272.2
2019-01-23T12:29:24.880Z,272.2
2019-01-23T12:32:31.051Z,269.3
2019-01-23T12:35:37.002Z,270.7
2019-01-23T12:38:42.864Z,270.7
2019-01-23T12:41:49.208Z,272.2
2019-01-23T12:44:55.190Z,272.2
2019-01-23T12:48:01.233Z,272.2
2019-01-23T12:51:07.321Z,270.7
2019-01-23T12:54:13.368Z,269.3
2019-01-23T12:57:19.422Z,267.8
2019-01-23T13:00:28.466Z,266.4
2019-01-23T13:03:34.520Z,263.5
2019-01-23T13:06:40.485Z,259.2
2019-01-23T13:09:48.079Z,266.4
2019-01-23T13:12:54.371Z,247.7
2019-01-23T13:16:00.416Z,247.7
2019-01-23T13:19:06.342Z,246.2
2019-01-23T13:22:12.495Z,249.1
2019-01-23T13:25:20.916Z,247.7
2019-01-23T13:28:26.964Z,247.7
2019-01-23T13:31:32.859Z,247.7
2019-01-23T13:34:38.925Z,246.2
2019-01-23T13:37:44.894Z,246.2
2019-01-23T13:40:50.854Z,246.2
2019-01-23T13:43:56.802Z,246.2
2019-01-23T13:47:02.760Z,247.7
2019-01-23T13:50:08.638Z,243.4
2019-01-23T13:53:15.054Z,243.4
2019-01-23T13:56:22.091Z,244.8
2019-01-23T13:59:28.955Z,243.4
2019-01-23T14:02:34.979Z,244.8
2019-01-23T14:05:41.172Z,243.4
2019-01-23T14:08:47.373Z,241.9
2019-01-23T14:11:53.504Z,239
2019-01-23T14:14:59.489Z,243.4
2019-01-23T14:18:05.697Z,243.4
2019-01-23T14:21:13.828Z,254.9
2019-01-23T14:24:23.036Z,256.3
2019-01-23T14:27:29.979Z,256.3
2019-01-23T14:30:35.926Z,257.8
2019-01-23T14:33:42.885Z,257.8
2019-01-23T14:36:48.994Z,256.3
2019-01-23T14:39:57.134Z,254.9
2019-01-23T14:43:03.149Z,256.3
2019-01-23T14:46:09.320Z,237.6
2019-01-23T14:49:15.394Z,252
2019-01-23T14:52:21.439Z,253.4
2019-01-23T14:55:27.511Z,253.4
2019-01-23T14:58:33.671Z,253.4
2019-01-23T15:01:39.731Z,254.9
2019-01-23T15:04:46.303Z,253.4
2019-01-23T15:07:52.273Z,253.4
2019-01-23T15:10:58.421Z,253.4
2019-01-23T15:14:05.507Z,253.4
2019-01-23T15:17:11.664Z,253.4
2019-01-23T15:20:18.933Z,253.4
2019-01-23T15:23:26.175Z,253.4
2019-01-23T15:26:32.616Z,254.9
2019-01-23T15:29:40.802Z,254.9
2019-01-23T15:32:46.860Z,254.9
2019-01-23T15:35:53.995Z,254.9
2019-01-23T15:38:59.912Z,253.4
2019-01-23T15:42:05.904Z,253.4
2019-01-23T15:45:11.773Z,253.4
2019-01-23T15:48:17.913Z,253.4
2019-01-23T15:51:23.800Z,253.4
2019-01-23T15:54:29.832Z,253.4
2019-01-23T15:57:35.905Z,253.4
2019-01-23T16:00:42.264Z,253.4
2019-01-23T16:03:48.312Z,254.9
2019-01-23T16:06:54.211Z,253.4
2019-01-23T16:10:00.446Z,254.9
2019-01-23T16:13:07.958Z,253.4
2019-01-23T16:16:13.902Z,254.9
2019-01-23T16:19:19.870Z,254.9
2019-01-23T16:22:27.357Z,253.4
2019-01-23T16:25:33.339Z,254.9
2019-01-23T16:28:39.380Z,253.4
2019-01-23T16:31:45.545Z,254.9
2019-01-23T16:34:51.605Z,253.4
2019-01-23T16:37:57.851Z,253.4
2019-01-23T16:41:04.556Z,254.9
2019-01-23T16:44:10.616Z,254.9
2019-01-23T16:47:16.569Z,254.9
2019-01-23T16:50:22.674Z,254.9
2019-01-23T16:53:28.709Z,254.9
2019-01-23T16:56:34.761Z,253.4
2019-01-23T16:59:40.717Z,254.9
2019-01-23T17:02:46.592Z,254.9
2019-01-23T17:05:52.637Z,254.9
2019-01-23T17:08:58.518Z,254.9
2019-01-23T17:12:11.192Z,254.9
2019-01-23T17:15:17.167Z,254.9
2019-01-23T17:18:23.041Z,254.9
2019-01-23T17:21:29.090Z,254.9
2019-01-23T17:24:34.994Z,254.9
2019-01-23T17:27:40.875Z,254.9
2019-01-23T17:30:46.919Z,254.9
2019-01-23T17:33:52.826Z,254.9
2019-01-23T17:36:58.810Z,254.9
2019-01-23T17:40:04.753Z,254.9
2019-01-23T17:43:10.719Z,254.9
2019-01-23T17:46:16.773Z,254.9
2019-01-23T17:49:22.810Z,254.9
2019-01-23T17:52:28.681Z,254.9
2019-01-23T17:55:37.672Z,254.9
2019-01-23T17:58:43.690Z,254.9
2019-01-23T18:01:49.634Z,254.9
2019-01-23T18:04:55.594Z,256.3
2019-01-23T18:08:01.574Z,256.3
2019-01-23T18:11:07.621Z,257.8
2019-01-23T18:14:13.663Z,257.8
2019-01-23T18:17:19.613Z,257.8
2019-01-23T18:20:25.590Z,257.8
2019-01-23T18:23:31.656Z,257.8
2019-01-23T18:26:40.686Z,257.8
2019-01-23T18:29:46.647Z,257.8
2019-01-23T18:32:52.604Z,257.8
2019-01-23T18:36:05.376Z,257.8
2019-01-23T18:39:11.293Z,259.2
2019-01-23T18:42:17.248Z,257.8
2019-01-23T18:45:23.207Z,257.8
2019-01-23T18:48:29.327Z,257.8
2019-01-23T18:51:38.377Z,259.2
2019-01-23T18:54:44.469Z,257.8
2019-01-23T18:57:50.417Z,259.2
2019-01-23T19:00:56.490Z,257.8
2019-01-23T19:04:02.384Z,257.8
2019-01-23T19:07:08.653Z,259.2
2019-01-23T19:10:14.553Z,257.8
2019-01-23T19:13:20.524Z,259.2
2019-01-23T19:16:26.594Z,259.2
2019-01-23T19:19:32.465Z,259.2
2019-01-23T19:22:38.502Z,259.2
2019-01-23T19:25:44.561Z,259.2
2019-01-23T19:28:50.626Z,257.8
2019-01-23T19:31:57.972Z,259.2
2019-01-23T19:35:04.081Z,259.2
2019-01-23T19:38:09.964Z,259.2
2019-01-23T19:41:22.911Z,259.2
2019-01-23T19:44:28.784Z,259.2
2019-01-23T19:47:34.909Z,259.2
2019-01-23T19:50:40.945Z,259.2
2019-01-23T19:53:46.928Z,259.2
2019-01-23T19:56:52.866Z,259.2
2019-01-23T19:59:58.929Z,259.2
2019-01-23T20:03:04.987Z,259.2
2019-01-23T20:06:11.070Z,260.6
2019-01-23T20:09:16.949Z,257.8
2019-01-23T20:12:22.968Z,259.2
2019-01-23T20:15:33.126Z,259.2
2019-01-23T20:18:39.104Z,256.3
2019-01-23T20:21:45.236Z,256.3
2019-01-23T20:24:51.210Z,257.8
2019-01-23T20:27:57.153Z,257.8
2019-01-23T20:31:03.141Z,0
2019-01-23T20:34:09.007Z,0
2019-01-23T20:37:14.964Z,0
2019-01-23T20:40:27.477Z,0
2019-01-23T20:43:33.419Z,0
2019-01-23T20:46:39.379Z,0
2019-01-23T20:49:45.556Z,0
2019-01-23T20:52:51.709Z,0
2019-01-23T20:55:57.735Z,0
2019-01-23T20:59:03.743Z,0
2019-01-23T21:02:09.638Z,0
2019-01-23T21:05:15.604Z,0
2019-01-23T21:08:21.516Z,0
2019-01-23T21:11:27.467Z,0
2019-01-23T21:14:33.336Z,0
2019-01-23T21:17:39.294Z,0
2019-01-23T21:20:45.194Z,0
2019-01-23T21:23:51.106Z,0
2019-01-23T21:26:57.048Z,141.8
2019-01-23T21:30:02.916Z,237.6
2019-01-23T21:33:08.987Z,252
2019-01-23T21:36:14.942Z,0
2019-01-23T21:39:20.994Z,0
2019-01-23T21:42:29.425Z,0
2019-01-23T21:45:35.388Z,0
2019-01-23T21:48:41.443Z,0
2019-01-23T21:51:47.308Z,0
2019-01-23T21:54:53.210Z,0
2019-01-23T21:57:59.068Z,0
2019-01-23T22:01:05.077Z,0
2019-01-23T22:04:11.652Z,0
2019-01-23T22:07:17.521Z,0
2019-01-23T22:10:23.468Z,0
2019-01-23T22:13:29.427Z,0
2019-01-23T22:16:35.334Z,0
2019-01-23T22:19:41.360Z,0
2019-01-23T22:22:47.421Z,0
2019-01-23T22:25:53.368Z,0
2019-01-23T22:28:59.326Z,0
2019-01-23T22:32:05.390Z,0
2019-01-23T22:35:11.271Z,0
2019-01-23T22:38:17.308Z,0
2019-01-23T22:41:23.188Z,0
2019-01-23T22:44:29.122Z,0
2019-01-23T22:47:35.085Z,0
2019-01-23T22:50:41.051Z,0
2019-01-23T22:53:47.128Z,0
2019-01-23T22:56:53.062Z,0
2019-01-23T22:59:59.022Z,0
2019-01-23T23:03:08.801Z,0
2019-01-23T23:06:14.735Z,0
2019-01-23T23:09:20.609Z,0
2019-01-23T23:12:26.547Z,0
2019-01-23T23:15:32.421Z,0
2019-01-23T23:18:38.369Z,0
2019-01-23T23:21:44.433Z,0
2019-01-23T23:24:50.378Z,0
2019-01-23T23:27:56.347Z,0
2019-01-23T23:31:02.722Z,0
2019-01-23T23:34:13.177Z,0
2019-01-23T23:37:19.148Z,0
2019-01-23T23:40:25.112Z,0
2019-01-23T23:43:31.170Z,0
2019-01-23T23:46:37.162Z,0
2019-01-23T23:49:43.094Z,0
2019-01-23T23:52:49.145Z,0
2019-01-23T23:55:55.130Z,0
2019-01-23T23:59:01.166Z,0
